Time;durP1;ratioP1;P1;durP2;ratioP2;P2;SDS_P1;SDS_P2;PMS_P1;PMS_P2;Temp;Humidity;BMP_temperature;BMP_pressure;BME280_temperature;BME280_humidity;BME280_pressure;Samples;Min_cycle;Max_cycle;Signal;HPM_P1;HPM_P2
2023/09/16 00:01:37;;;;;;;15.48;10.57;;;;;;;14.88;66.75;100698.94;4925217;29;20040;-71
2023/09/16 00:04:03;;;;;;;21.92;12.80;;;;;;;14.88;66.65;100692.84;4925916;29;20050;-71
2023/09/16 00:06:30;;;;;;;23.20;13.70;;;;;;;14.57;66.53;100651.25;4925281;29;20135;-71
2023/09/16 00:08:56;;;;;;;22.38;13.45;;;;;;;14.26;66.83;100602.75;4920585;29;20058;-71
2023/09/16 00:11:22;;;;;;;14.43;11.45;;;;;;;14.76;66.71;100686.00;4940656;28;20047;-71
2023/09/16 00:13:48;;;;;;;17.20;11.70;;;;;;;14.84;66.87;100694.63;4938296;28;20111;-71
2023/09/16 00:16:15;;;;;;;19.67;11.52;;;;;;;14.86;66.91;100697.25;4921922;29;20043;-71
2023/09/16 00:18:42;;;;;;;15.15;10.98;;;;;;;14.88;66.68;100709.44;4928606;29;20771;-69
2023/09/16 00:21:10;;;;;;;20.20;11.38;;;;;;;14.84;66.86;100701.63;4943205;28;20040;-70
2023/09/16 00:23:38;;;;;;;18.45;11.85;;;;;;;14.71;67.00;100672.94;4944792;28;20083;-70
2023/09/16 00:26:04;;;;;;;23.15;11.15;;;;;;;14.85;66.89;100711.22;4927497;29;20057;-71
2023/09/16 00:28:32;;;;;;;14.75;11.40;;;;;;;14.90;67.05;100710.28;4930369;29;20086;-73
2023/09/16 00:31:00;;;;;;;22.40;13.10;;;;;;;14.71;66.87;100679.94;4929966;29;20078;-72
2023/09/16 00:33:28;;;;;;;23.00;12.63;;;;;;;14.74;66.88;100682.53;4942372;28;20131;-72
2023/09/16 00:35:54;;;;;;;22.95;12.50;;;;;;;14.76;67.18;100692.09;4927819;29;20047;-71
2023/09/16 00:38:20;;;;;;;20.85;12.35;;;;;;;14.90;67.22;100712.00;4907430;29;20418;-71
2023/09/16 00:40:46;;;;;;;18.20;11.25;;;;;;;14.80;67.17;100695.53;4919797;29;20053;-70
2023/09/16 00:43:12;;;;;;;17.48;11.55;;;;;;;14.78;67.39;100692.09;4941350;28;20036;-73
2023/09/16 00:45:40;;;;;;;17.48;11.52;;;;;;;14.76;67.17;100686.88;4928717;29;20047;-71
2023/09/16 00:48:08;;;;;;;18.83;12.63;;;;;;;14.87;67.02;100701.59;4943790;28;20094;-69
2023/09/16 00:50:34;;;;;;;20.52;11.95;;;;;;;14.94;67.10;100720.72;4912110;29;20043;-71
2023/09/16 00:53:00;;;;;;;20.08;12.35;;;;;;;14.66;67.06;100677.38;4942912;28;20040;-70
2023/09/16 00:55:28;;;;;;;19.02;11.43;;;;;;;14.93;66.77;100717.22;4942145;28;20076;-70
2023/09/16 00:57:56;;;;;;;18.50;11.85;;;;;;;14.78;67.03;100702.59;4929654;29;20194;-71
2023/09/16 01:00:26;;;;;;;22.85;11.88;;;;;;;14.88;67.18;100719.91;4929289;29;20054;-71
2023/09/16 01:02:54;;;;;;;14.80;11.68;;;;;;;14.79;67.17;100700.81;4920205;29;20044;-72
2023/09/16 01:05:21;;;;;;;18.13;11.27;;;;;;;14.84;67.13;100717.34;4929554;29;20075;-70
2023/09/16 01:07:47;;;;;;;16.17;11.30;;;;;;;14.91;67.06;100719.00;4939130;28;20050;-72
2023/09/16 01:10:15;;;;;;;19.55;11.60;;;;;;;14.93;67.26;100729.47;4906195;29;20047;-71
2023/09/16 01:12:45;;;;;;;14.73;11.25;;;;;;;14.78;67.17;100707.81;4929063;29;20170;-71
2023/09/16 01:15:13;;;;;;;19.85;11.35;;;;;;;14.82;67.27;100716.50;4943713;28;20035;-70
2023/09/16 01:18:12;;;;;;;23.05;10.85;;;;;;;14.90;67.15;100727.72;4934729;29;20070;-72
2023/09/16 01:20:39;;;;;;;18.05;10.13;;;;;;;14.75;67.27;100703.47;4940922;28;20043;-71
2023/09/16 01:23:06;;;;;;;22.25;11.20;;;;;;;14.87;67.18;100727.81;4926894;29;20051;-71
2023/09/16 01:25:32;;;;;;;16.13;10.68;;;;;;;14.90;66.98;100735.59;4942108;28;20449;-70
2023/09/16 01:27:59;;;;;;;22.55;11.02;;;;;;;14.83;66.87;100723.47;4928878;29;20039;-70
2023/09/16 01:30:26;;;;;;;21.98;10.90;;;;;;;14.87;67.14;100738.28;4928517;29;20143;-71
2023/09/16 01:33:23;;;;;;;25.75;11.73;;;;;;;14.75;67.06;100718.34;4928778;29;20135;-71
2023/09/16 01:35:55;;;;;;;21.85;11.20;;;;;;;14.81;66.69;100736.56;4927606;29;20067;-69
2023/09/16 01:38:23;;;;;;;15.88;10.55;;;;;;;14.84;66.67;100744.41;4943523;28;20052;-70
2023/09/16 01:40:51;;;;;;;20.23;11.25;;;;;;;14.89;66.78;100753.09;4905060;29;20039;-70
2023/09/16 01:43:19;;;;;;;20.90;11.50;;;;;;;14.85;66.99;100745.28;4941558;28;20042;-71
2023/09/16 01:45:45;;;;;;;23.40;11.45;;;;;;;14.84;66.64;100749.66;4926937;29;20035;-71
2023/09/16 01:48:11;;;;;;;13.43;9.48;;;;;;;14.88;66.73;100760.97;4924650;29;20047;-70
2023/09/16 01:50:37;;;;;;;19.55;10.55;;;;;;;14.87;67.09;100754.84;4941779;28;20051;-69
2023/09/16 01:53:07;;;;;;;20.52;11.93;;;;;;;14.78;66.72;100738.38;4941256;28;20044;-69
2023/09/16 01:55:34;;;;;;;16.83;10.57;;;;;;;14.91;66.67;100767.03;4928707;29;20138;-70
2023/09/16 01:58:00;;;;;;;19.17;10.90;;;;;;;14.90;66.83;100767.03;4927005;29;20046;-70
2023/09/16 02:00:26;;;;;;;17.88;11.00;;;;;;;14.92;66.88;100773.13;4926582;29;20044;-71
2023/09/16 02:02:53;;;;;;;17.85;12.35;;;;;;;14.82;66.70;100761.03;4928836;29;20071;-70
2023/09/16 02:05:19;;;;;;;16.50;10.70;;;;;;;14.93;66.71;100769.63;4928263;29;20070;-70
2023/09/16 02:07:45;;;;;;;16.20;11.52;;;;;;;14.80;66.95;100753.19;4922813;29;20040;-71
2023/09/16 02:10:11;;;;;;;18.23;10.45;;;;;;;14.88;67.36;100764.44;4942233;28;20103;-71
2023/09/16 02:12:37;;;;;;;16.73;11.05;;;;;;;14.93;67.20;100780.09;4922014;29;20069;-71
2023/09/16 02:15:06;;;;;;;18.83;11.15;;;;;;;14.97;67.33;100781.81;4941698;28;20134;-69
2023/09/16 02:17:36;;;;;;;23.60;12.07;;;;;;;14.98;67.06;100782.69;4924284;29;20063;-70
2023/09/16 02:20:03;;;;;;;15.43;10.98;;;;;;;14.92;67.41;100767.91;4940686;28;20169;-70
2023/09/16 02:22:32;;;;;;;17.88;12.52;;;;;;;15.00;67.46;100770.44;4942031;28;20516;-72
2023/09/16 02:24:58;;;;;;;17.33;10.88;;;;;;;14.91;67.42;100764.41;4942922;28;20042;-71
2023/09/16 02:27:24;;;;;;;18.50;11.05;;;;;;;14.92;67.23;100770.50;4941351;28;20047;-70
2023/09/16 02:29:52;;;;;;;15.60;10.43;;;;;;;14.99;67.56;100777.44;4926702;29;20050;-70
2023/09/16 02:32:18;;;;;;;14.95;10.15;;;;;;;15.01;67.61;100778.28;4922791;29;20066;-70
2023/09/16 02:34:45;;;;;;;16.67;10.23;;;;;;;14.90;67.52;100762.69;4941522;28;20558;-71
2023/09/16 02:37:11;;;;;;;15.70;10.63;;;;;;;15.02;67.56;100789.63;4924820;29;20119;-70
2023/09/16 02:39:37;;;;;;;19.13;9.98;;;;;;;15.03;67.63;100789.63;4927976;29;20521;-71
2023/09/16 02:42:03;;;;;;;14.98;10.35;;;;;;;14.96;67.92;100769.59;4929112;29;20039;-70
2023/09/16 02:44:30;;;;;;;14.18;10.63;;;;;;;14.98;67.83;100769.59;4925898;29;20040;-70
2023/09/16 02:46:56;;;;;;;14.23;10.30;;;;;;;14.99;67.73;100780.06;4922014;29;20047;-69
2023/09/16 02:49:22;;;;;;;14.45;10.77;;;;;;;14.91;67.82;100758.28;4926230;29;20043;-70
2023/09/16 02:51:48;;;;;;;16.08;10.52;;;;;;;15.00;67.91;100780.94;4940682;28;20090;-70
2023/09/16 02:54:15;;;;;;;15.77;11.32;;;;;;;15.10;67.79;100800.91;4942319;28;20208;-71
2023/09/16 02:56:41;;;;;;;18.05;10.60;;;;;;;15.05;67.66;100794.81;4941917;28;20615;-69
2023/09/16 02:59:07;;;;;;;15.73;11.40;;;;;;;14.94;68.01;100774.00;4920968;29;20102;-71
2023/09/16 03:01:33;;;;;;;19.02;11.13;;;;;;;15.08;68.09;100791.31;4940331;28;20043;-70
2023/09/16 03:04:00;;;;;;;17.40;11.30;;;;;;;15.02;68.26;100793.13;4942169;28;20035;-69
2023/09/16 03:06:26;;;;;;;16.10;11.00;;;;;;;15.09;67.82;100796.53;4939544;28;20518;-70
2023/09/16 03:08:53;;;;;;;16.30;10.73;;;;;;;15.03;68.16;100794.88;4942054;28;20042;-70
2023/09/16 03:11:23;;;;;;;19.25;12.00;;;;;;;15.04;67.72;100801.84;4941887;28;20478;-72
2023/09/16 03:13:50;;;;;;;17.83;10.48;;;;;;;15.01;68.07;100799.25;4922727;29;20054;-70
2023/09/16 03:16:18;;;;;;;19.60;12.02;;;;;;;14.98;68.33;100804.53;4940033;28;20406;-70
2023/09/16 03:18:48;;;;;;;;;;;;;;;15.06;68.46;100812.28;4942085;28;20067;-72
2023/09/16 03:21:16;;;;;;;17.58;11.40;;;;;;;14.91;68.37;100784.50;4941523;28;19918;-70
2023/09/16 03:23:44;;;;;;;17.27;11.18;;;;;;;15.05;68.36;100814.06;4926850;29;20040;-70
2023/09/16 03:26:12;;;;;;;16.63;11.38;;;;;;;15.03;68.54;100804.47;4923041;29;20044;-69
2023/09/16 03:28:42;;;;;;;15.32;11.68;;;;;;;14.79;68.46;100758.44;4941690;28;20441;-71
2023/09/16 03:31:08;;;;;;;15.80;11.73;;;;;;;14.82;68.75;100782.00;4920520;29;20394;-71
2023/09/16 03:33:36;;;;;;;17.40;11.68;;;;;;;15.09;68.98;100820.13;4941848;28;20040;-71
2023/09/16 03:36:04;;;;;;;16.27;12.18;;;;;;;15.08;68.77;100822.78;4925469;29;20126;-71
2023/09/16 03:38:31;;;;;;;19.90;12.80;;;;;;;15.08;68.95;100821.00;4926172;29;20134;-70
2023/09/16 03:41:01;;;;;;;19.63;11.70;;;;;;;14.99;68.82;100808.88;4923370;29;20536;-71
2023/09/16 03:43:27;;;;;;;17.20;12.43;;;;;;;15.12;69.04;100834.94;4939884;28;20160;-71
2023/09/16 03:45:54;;;;;;;18.13;12.57;;;;;;;15.10;69.05;100832.34;4927363;29;20549;-71
2023/09/16 03:48:20;;;;;;;18.73;11.95;;;;;;;15.09;69.24;100832.38;4940179;28;20047;-71
2023/09/16 03:50:46;;;;;;;14.90;11.65;;;;;;;15.14;69.11;100833.16;4921051;29;20046;-70
2023/09/16 03:53:12;;;;;;;16.38;11.73;;;;;;;14.97;68.83;100810.66;4942277;28;20058;-70
2023/09/16 03:55:41;;;;;;;18.27;11.88;;;;;;;15.00;69.18;100821.09;4922499;29;20059;-70
2023/09/16 03:58:07;;;;;;;16.25;11.80;;;;;;;15.03;69.43;100831.56;4944511;28;20075;-70
2023/09/16 04:00:33;;;;;;;15.85;11.65;;;;;;;15.11;69.75;100847.19;4930516;29;20107;-70
2023/09/16 04:02:59;;;;;;;16.58;12.48;;;;;;;15.09;69.36;100841.09;4932116;29;20558;-70
2023/09/16 04:05:25;;;;;;;19.52;12.60;;;;;;;14.94;69.36;100818.53;4942936;28;20133;-72
2023/09/16 04:07:51;;;;;;;20.92;13.13;;;;;;;14.95;69.86;100830.75;4943438;28;20272;-70
2023/09/16 04:10:17;;;;;;;19.63;14.13;;;;;;;15.00;69.79;100844.69;4926866;29;20040;-70
2023/09/16 04:12:43;;;;;;;19.30;13.95;;;;;;;14.72;69.83;100805.66;4944892;28;20060;-71
2023/09/16 04:15:09;;;;;;;22.17;15.57;;;;;;;15.00;70.41;100856.94;4929436;29;20051;-70
2023/09/16 04:17:35;;;;;;;21.45;13.65;;;;;;;15.01;70.43;100848.16;4944111;28;20051;-71
2023/09/16 04:20:05;;;;;;;17.75;13.93;;;;;;;14.86;70.45;100836.13;4945057;28;20043;-69
2023/09/16 04:22:32;;;;;;;21.05;13.98;;;;;;;14.69;70.63;100803.06;4945087;28;20061;-71
2023/09/16 04:25:00;;;;;;;20.00;14.52;;;;;;;14.71;70.69;100817.03;4907822;29;20083;-71
2023/09/16 04:27:29;;;;;;;22.65;15.35;;;;;;;14.94;71.01;100857.84;4942312;28;20074;-71
2023/09/16 04:29:55;;;;;;;20.92;15.20;;;;;;;14.87;71.25;100843.94;4940508;28;20363;-72
2023/09/16 04:32:23;;;;;;;19.90;13.60;;;;;;;14.37;71.06;100764.06;4928577;29;20106;-73
2023/09/16 04:34:49;;;;;;;18.75;13.23;;;;;;;14.76;71.50;100824.84;4908085;29;20150;-71
2023/09/16 04:37:16;;;;;;;15.63;10.82;;;;;;;15.00;71.41;100870.03;4944115;28;20052;-71
2023/09/16 04:39:42;;;;;;;16.17;9.80;;;;;;;14.88;71.35;100852.69;4928842;29;20086;-71
2023/09/16 04:42:09;;;;;;;16.38;9.90;;;;;;;14.75;71.49;100838.84;4944069;28;20530;-72
2023/09/16 04:44:38;;;;;;;14.07;9.57;;;;;;;14.75;71.95;100844.94;4925270;29;20059;-71
2023/09/16 04:47:10;;;;;;;10.85;7.53;;;;;;;14.92;71.89;100859.59;4906902;29;20135;-71
2023/09/16 04:49:37;;;;;;;11.85;8.05;;;;;;;14.94;71.88;100859.63;4928471;29;20513;-72
2023/09/16 04:52:04;;;;;;;8.77;6.25;;;;;;;14.99;72.11;100874.41;4928042;29;20054;-71
2023/09/16 04:54:35;;;;;;;7.30;5.60;;;;;;;14.89;72.11;100864.91;4905865;29;20074;-71
2023/09/16 04:57:03;;;;;;;22.73;13.18;;;;;;;14.94;72.01;100870.94;4909790;29;20052;-70
2023/09/16 04:59:33;;;;;;;5.18;4.18;;;;;;;15.03;72.15;100886.59;4943320;28;20050;-71
2023/09/16 05:02:02;;;;;;;6.95;4.50;;;;;;;14.89;72.21;100859.66;4943131;28;21313;-71
2023/09/16 05:04:28;;;;;;;4.38;3.65;;;;;;;15.10;72.20;100887.41;4943741;28;20074;-72
2023/09/16 05:06:55;;;;;;;6.72;4.18;;;;;;;15.05;72.14;100871.72;4943489;28;20039;-71
2023/09/16 05:09:22;;;;;;;4.10;3.45;;;;;;;15.25;72.36;100890.72;4929430;29;20044;-71
2023/09/16 05:11:48;;;;;;;4.03;3.10;;;;;;;15.29;72.22;100893.31;4944327;28;20054;-70
2023/09/16 05:14:15;;;;;;;3.80;2.90;;;;;;;15.08;72.07;100849.84;4944780;28;20043;-71
2023/09/16 05:16:42;;;;;;;4.68;3.47;;;;;;;14.57;71.72;100780.44;4928543;29;20049;-71
2023/09/16 05:19:09;;;;;;;3.47;3.05;;;;;;;14.73;71.78;100796.06;4924855;29;20050;-71
2023/09/16 05:21:35;;;;;;;2.80;2.50;;;;;;;15.25;71.45;100882.84;4944003;28;20044;-72
2023/09/16 05:24:01;;;;;;;3.10;2.38;;;;;;;15.25;71.48;100890.72;4926932;29;20058;-71
2023/09/16 05:26:29;;;;;;;2.50;2.30;;;;;;;15.37;71.57;100911.59;4943769;28;20090;-71
2023/09/16 05:28:56;;;;;;;3.05;2.65;;;;;;;14.91;71.33;100837.78;4929182;29;20046;-71
2023/09/16 05:31:25;;;;;;;3.40;2.40;;;;;;;15.17;71.16;100872.47;4941204;28;20193;-71
2023/09/16 05:33:51;;;;;;;2.65;2.45;;;;;;;15.29;70.50;100897.69;4912280;29;20046;-70
2023/09/16 05:36:18;;;;;;;2.90;2.20;;;;;;;15.33;70.91;100902.00;4925745;29;20067;-70
2023/09/16 05:38:44;;;;;;;3.10;2.20;;;;;;;15.58;71.10;100920.94;4927403;29;20058;-70
2023/09/16 05:41:10;;;;;;;2.30;2.00;;;;;;;15.60;70.65;100913.06;4924629;29;20043;-70
2023/09/16 05:43:36;;;;;;;4.15;1.65;;;;;;;15.76;70.52;100924.25;4923924;29;20043;-71
2023/09/16 05:46:02;;;;;;;1.38;1.20;;;;;;;15.55;70.07;100889.53;4943566;28;21400;-71
2023/09/16 05:48:30;;;;;;;2.47;1.15;;;;;;;15.52;69.74;100889.56;4942071;28;20047;-70
2023/09/16 05:50:59;;;;;;;1.45;1.30;;;;;;;15.81;69.77;100940.78;4939344;28;20047;-72
2023/09/16 05:53:29;;;;;;;1.30;1.08;;;;;;;15.56;69.60;100906.97;4924736;29;20043;-72
2023/09/16 05:56:04;;;;;;;0.98;0.88;;;;;;;15.41;69.20;100876.56;4919323;29;20163;-71
2023/09/16 05:58:32;;;;;;;0.95;0.85;;;;;;;15.60;68.93;100908.69;4943804;28;20098;-71
2023/09/16 06:00:58;;;;;;;1.40;1.00;;;;;;;15.59;68.87;100920.06;4928960;29;20134;-73
2023/09/16 06:03:24;;;;;;;2.88;0.80;;;;;;;15.50;68.56;100892.19;4922995;29;20040;-72
2023/09/16 06:05:57;;;;;;;2.53;0.95;;;;;;;15.68;68.14;100915.59;4927696;29;20395;-71
2023/09/16 06:08:24;;;;;;;1.85;0.80;;;;;;;15.82;68.21;100945.16;4941130;28;20071;-72
2023/09/16 06:10:50;;;;;;;1.10;1.00;;;;;;;15.84;67.69;100948.63;4929455;29;20086;-72
2023/09/16 06:13:16;;;;;;;1.30;1.20;;;;;;;15.92;67.72;100944.19;4927735;29;20083;-71
2023/09/16 06:15:43;;;;;;;1.55;1.30;;;;;;;15.98;67.71;100953.75;4940903;28;20053;-72
2023/09/16 06:18:10;;;;;;;1.20;1.00;;;;;;;16.01;67.62;100955.44;4942418;28;20451;-71
2023/09/16 06:20:38;;;;;;;1.85;0.98;;;;;;;15.84;67.29;100930.25;4925687;29;20043;-70
2023/09/16 06:23:04;;;;;;;2.10;0.80;;;;;;;15.84;67.51;100917.13;4941092;28;20040;-71
2023/09/16 06:25:31;;;;;;;2.72;0.80;;;;;;;16.01;67.14;100911.69;4928018;29;20051;-71
2023/09/16 06:27:59;;;;;;;2.35;0.80;;;;;;;16.45;66.44;100960.97;4940596;28;20126;-72
2023/09/16 06:30:25;;;;;;;3.05;0.82;;;;;;;16.66;66.23;100965.06;4925867;29;20044;-71
2023/09/16 06:32:53;;;;;;;2.60;1.20;;;;;;;16.59;66.17;100937.97;4941109;28;20039;-72
2023/09/16 06:35:19;;;;;;;3.15;1.33;;;;;;;16.77;65.81;100973.63;4938823;28;20063;-69
2023/09/16 06:37:46;;;;;;;1.45;1.20;;;;;;;16.62;65.44;100947.59;4939550;28;20051;-72
2023/09/16 06:40:12;;;;;;;1.75;1.50;;;;;;;16.68;64.75;100956.25;4922660;29;20050;-70
2023/09/16 06:42:38;;;;;;;2.00;1.40;;;;;;;16.65;64.82;100940.53;4927849;29;20039;-71
2023/09/16 06:45:04;;;;;;;2.63;1.20;;;;;;;16.88;64.66;100977.84;4942221;28;20042;-73
2023/09/16 06:47:31;;;;;;;2.83;1.15;;;;;;;16.72;64.69;100954.41;4941662;28;20055;-72
2023/09/16 06:49:57;;;;;;;1.23;0.80;;;;;;;16.42;64.36;100914.63;4920076;29;20032;-74
2023/09/16 06:52:26;;;;;;;2.17;0.73;;;;;;;16.94;64.41;101002.28;4910391;29;20161;-71
2023/09/16 06:54:52;;;;;;;0.88;0.60;;;;;;;17.00;64.40;100999.56;4926360;29;20098;-71
2023/09/16 06:57:18;;;;;;;1.65;0.63;;;;;;;16.86;64.22;100968.22;4927309;29;20549;-71
2023/09/16 06:59:48;;;;;;;1.75;1.10;;;;;;;17.16;64.07;100994.06;4941488;28;20076;-72
2023/09/16 07:02:14;;;;;;;2.13;0.85;;;;;;;17.40;63.68;101005.03;4904318;29;20040;-71
2023/09/16 07:04:45;;;;;;;2.10;0.88;;;;;;;17.64;63.56;100994.94;4927757;29;20046;-73
2023/09/16 07:07:12;;;;;;;0.80;0.75;;;;;;;17.77;62.72;100989.38;4905585;29;20051;-72
2023/09/16 07:09:38;;;;;;;0.68;0.68;;;;;;;17.95;62.19;100997.84;4927990;29;20059;-71
2023/09/16 07:12:06;;;;;;;1.30;0.77;;;;;;;17.91;61.94;100990.91;4926839;29;20051;-70
2023/09/16 07:14:36;;;;;;;1.08;0.80;;;;;;;17.83;61.31;100961.22;4920513;29;20059;-71
2023/09/16 07:17:02;;;;;;;0.80;0.70;;;;;;;18.15;61.04;100997.44;4910222;29;20391;-73
2023/09/16 07:19:28;;;;;;;2.03;0.82;;;;;;;18.05;60.87;100967.78;4942054;28;20546;-72
2023/09/16 07:21:54;;;;;;;2.28;0.98;;;;;;;18.18;60.37;100973.66;4918182;29;20039;-72
2023/09/16 07:24:20;;;;;;;4.22;1.25;;;;;;;18.24;60.23;100972.66;4927820;29;20044;-73
2023/09/16 07:26:46;;;;;;;2.47;1.48;;;;;;;18.65;59.56;101005.09;4939679;28;20384;-72
2023/09/16 07:29:13;;;;;;;2.97;1.23;;;;;;;18.67;59.04;101003.28;4946006;28;20039;-72
2023/09/16 07:31:39;;;;;;;1.38;1.20;;;;;;;18.56;58.63;100978.09;4931485;29;20043;-73
2023/09/16 07:34:04;;;;;;;5.78;1.58;;;;;;;18.67;57.74;101019.13;4913736;29;20054;-72
2023/09/16 07:36:31;;;;;;;2.45;1.90;;;;;;;18.45;57.81;100997.66;4941332;28;20050;-71
2023/09/16 07:38:57;;;;;;;2.70;1.67;;;;;;;18.36;57.95;101001.38;4930985;29;20039;-72
2023/09/16 07:41:23;;;;;;;3.15;1.90;;;;;;;18.40;57.56;101032.94;4935289;29;20047;-72
2023/09/16 07:43:49;;;;;;;2.38;1.60;;;;;;;18.35;56.99;101028.63;4931558;29;20035;-72
2023/09/16 07:46:18;;;;;;;1.83;1.60;;;;;;;18.09;57.16;100994.94;4929871;29;20390;-72
2023/09/16 07:48:44;;;;;;;3.75;1.67;;;;;;;18.17;56.84;101015.84;4930504;29;21088;-73
2023/09/16 07:51:11;;;;;;;3.00;1.95;;;;;;;18.21;56.76;101020.13;4943785;28;20046;-71
2023/09/16 07:53:37;;;;;;;2.92;2.70;;;;;;;18.53;57.11;100984.31;4945790;28;20051;-72
2023/09/16 07:56:03;;;;;;;3.35;2.00;;;;;;;18.73;56.95;100996.16;4915234;29;20046;-72
2023/09/16 07:58:29;;;;;;;2.80;2.10;;;;;;;18.58;56.28;100949.94;4944493;28;20073;-72
2023/09/16 08:00:55;;;;;;;3.70;2.38;;;;;;;19.00;56.53;100977.97;4946446;28;20044;-70
2023/09/16 08:03:22;;;;;;;3.30;2.28;;;;;;;19.31;55.68;101006.19;4929987;29;20039;-73
2023/09/16 08:05:49;;;;;;;2.55;1.70;;;;;;;19.19;54.30;100996.81;4943769;28;20075;-72
2023/09/16 08:08:16;;;;;;;2.13;1.92;;;;;;;19.24;55.16;101018.66;4920038;29;20047;-72
2023/09/16 08:10:49;;;;;;;7.05;2.40;;;;;;;18.92;54.59;100986.03;4929673;29;20047;-72
2023/09/16 08:13:18;;;;;;;7.50;3.03;;;;;;;18.88;54.84;101014.22;4919257;29;20102;-74
2023/09/16 08:15:44;;;;;;;4.03;3.50;;;;;;;18.65;54.40;101020.91;4926687;29;20044;-71
2023/09/16 08:18:10;;;;;;;5.65;3.40;;;;;;;18.68;54.87;101046.34;4911564;29;20047;-71
2023/09/16 08:20:36;;;;;;;7.22;3.30;;;;;;;18.54;54.77;101027.38;4935740;28;20066;-70
2023/09/16 08:23:02;;;;;;;3.75;2.78;;;;;;;18.36;54.88;101016.31;4914577;29;20039;-72
2023/09/16 08:25:28;;;;;;;3.05;2.72;;;;;;;18.21;55.34;101017.50;4931058;29;20040;-73
2023/09/16 08:27:54;;;;;;;2.83;2.53;;;;;;;18.56;55.05;101051.88;4913947;29;20122;-73
2023/09/16 08:30:21;;;;;;;2.95;1.70;;;;;;;18.39;55.13;100997.78;4931190;29;20126;-71
2023/09/16 08:32:49;;;;;;;2.50;1.95;;;;;;;18.44;55.04;100997.69;4944860;28;20106;-74
2023/09/16 08:35:15;;;;;;;2.10;1.30;;;;;;;18.64;53.89;101019.22;4943528;28;20066;-73
2023/09/16 08:37:41;;;;;;;1.38;1.27;;;;;;;18.43;54.37;100996.84;4929963;29;20051;-71
2023/09/16 08:40:07;;;;;;;2.05;1.20;;;;;;;18.69;54.32;101037.53;4929920;29;20047;-74
2023/09/16 08:42:43;;;;;;;1.45;1.30;;;;;;;18.66;54.03;101045.53;4943570;28;20043;-72
2023/09/16 08:45:14;;;;;;;1.08;0.98;;;;;;;18.63;53.12;101042.94;4930519;29;20130;-73
2023/09/16 08:47:46;;;;;;;1.10;0.90;;;;;;;18.76;53.82;101062.84;4943854;28;20043;-72
2023/09/16 08:50:12;;;;;;;4.68;1.20;;;;;;;18.62;52.62;101050.00;4937700;28;20043;-72
2023/09/16 08:53:00;;;;;;;2.85;1.30;;;;;;;18.70;53.63;101070.03;4929590;29;20096;-74
2023/09/16 08:55:27;;;;;;;2.85;1.30;;;;;;;18.67;53.28;101055.16;4924511;29;20043;-74
2023/09/16 08:58:03;;;;;;;2.38;1.13;;;;;;;18.78;53.05;101058.41;4933076;29;20051;-71
2023/09/16 09:00:29;;;;;;;3.50;1.20;;;;;;;18.64;52.87;101029.75;4944900;28;20090;-74
2023/09/16 09:02:55;;;;;;;1.77;0.90;;;;;;;19.07;52.97;101079.78;4929136;29;20043;-73
2023/09/16 09:05:26;;;;;;;1.52;1.08;;;;;;;19.24;52.51;101074.06;4934951;29;20043;-71
2023/09/16 09:07:53;;;;;;;1.67;1.53;;;;;;;19.24;52.06;101024.81;4910035;29;20551;-71
2023/09/16 09:10:19;;;;;;;1.63;1.25;;;;;;;19.79;51.87;101077.03;4929592;29;20062;-72
2023/09/16 09:12:46;;;;;;;2.78;1.60;;;;;;;19.89;50.60;101047.78;4941822;28;20051;-72
2023/09/16 09:15:16;;;;;;;3.83;1.77;;;;;;;19.97;50.60;101016.75;4924799;29;20043;-73
2023/09/16 09:17:58;;;;;;;3.88;1.50;;;;;;;20.81;50.97;101016.88;4929837;29;20549;-73
2023/09/16 09:20:29;;;;;;;2.33;1.20;;;;;;;21.34;48.93;101002.78;4928234;29;20040;-72
2023/09/16 09:22:56;;;;;;;3.38;1.10;;;;;;;21.81;47.84;101085.00;4930709;29;20048;-75
2023/09/16 09:25:24;;;;;;;1.13;1.02;;;;;;;21.20;47.00;101019.97;4940318;28;20036;-73
2023/09/16 09:27:52;;;;;;;0.90;0.90;;;;;;;21.21;46.48;101060.53;4942335;28;20086;-72
2023/09/16 09:30:29;;;;;;;2.42;1.10;;;;;;;20.92;46.63;101050.00;4912556;29;20078;-73
2023/09/16 09:32:56;;;;;;;4.13;1.30;;;;;;;20.96;46.25;101085.16;4929587;29;20481;-74
2023/09/16 09:35:26;;;;;;;2.30;1.45;;;;;;;20.65;46.17;101045.56;4910295;29;20051;-73
2023/09/16 09:37:53;;;;;;;4.28;2.30;;;;;;;20.92;46.06;101094.09;4944197;28;20051;-73
2023/09/16 09:40:21;;;;;;;3.20;2.03;;;;;;;20.87;46.50;101094.25;4942610;28;20059;-72
2023/09/16 09:42:49;;;;;;;1.35;1.25;;;;;;;20.46;45.71;101020.53;4943389;28;20040;-71
2023/09/16 09:45:17;;;;;;;2.70;1.70;;;;;;;20.33;46.32;101003.34;4928014;29;20049;-72
2023/09/16 09:47:44;;;;;;;4.28;1.83;;;;;;;20.94;46.22;101065.81;4928314;29;20043;-73
2023/09/16 09:50:15;;;;;;;5.22;1.65;;;;;;;21.06;45.06;101088.38;4941474;28;20046;-72
2023/09/16 09:52:50;;;;;;;2.50;1.73;;;;;;;21.03;45.14;101080.53;4927630;29;20510;-72
2023/09/16 09:55:23;;;;;;;2.95;1.65;;;;;;;21.26;45.16;101100.97;4923940;29;20070;-73
2023/09/16 09:57:52;;;;;;;5.25;1.63;;;;;;;21.24;44.67;101100.16;4934410;29;20058;-72
2023/09/16 10:00:20;;;;;;;2.72;1.83;;;;;;;20.60;45.08;101038.63;4942890;28;20130;-73
2023/09/16 10:02:47;;;;;;;3.47;1.60;;;;;;;20.76;44.62;101067.25;4925061;29;20062;-72
2023/09/16 10:05:20;;;;;;;3.55;1.70;;;;;;;20.94;44.77;101092.28;4927585;29;20047;-76
2023/09/16 10:07:47;;;;;;;2.58;1.75;;;;;;;21.06;44.92;101089.25;4905354;29;20043;-72
2023/09/16 10:10:21;;;;;;;2.10;1.55;;;;;;;20.73;44.11;101043.56;4923566;29;20090;-73
2023/09/16 10:12:50;;;;;;;2.03;1.52;;;;;;;20.35;43.70;101049.09;4926714;29;20075;-73
2023/09/16 10:15:17;;;;;;;8.70;2.03;;;;;;;20.29;44.63;101078.34;4941225;28;20039;-73
2023/09/16 10:17:46;;;;;;;3.28;1.80;;;;;;;20.28;44.61;101108.31;4936795;28;20039;-71
2023/09/16 10:20:13;;;;;;;4.05;1.83;;;;;;;19.65;45.20;101031.69;4928356;29;20071;-73
2023/09/16 10:22:40;;;;;;;5.53;1.92;;;;;;;19.99;44.85;101084.47;4942347;28;20139;-73
2023/09/16 10:25:08;;;;;;;4.03;1.90;;;;;;;20.19;45.46;101116.53;4942418;28;20032;-71
2023/09/16 10:27:45;;;;;;;8.18;2.38;;;;;;;19.84;45.14;101059.31;4908329;29;20054;-72
2023/09/16 10:30:14;;;;;;;3.22;1.90;;;;;;;20.20;44.70;101124.41;4908954;29;20067;-72
2023/09/16 10:32:41;;;;;;;4.85;2.10;;;;;;;20.09;45.33;101105.31;4922444;29;20047;-72
2023/09/16 10:35:08;;;;;;;3.95;2.28;;;;;;;20.07;44.67;101092.16;4921994;29;20529;-72
2023/09/16 10:37:36;;;;;;;4.57;1.80;;;;;;;20.44;44.62;101120.16;4905601;29;20043;-71
2023/09/16 10:40:04;;;;;;;1.60;1.50;;;;;;;20.46;44.45;101122.78;4907261;29;20043;-73
2023/09/16 10:42:35;;;;;;;1.70;1.38;;;;;;;20.01;44.35;101055.34;4928742;29;20070;-71
2023/09/16 10:45:03;;;;;;;3.83;1.50;;;;;;;20.30;44.17;101098.56;4927434;29;20062;-73
2023/09/16 10:47:32;;;;;;;4.15;1.40;;;;;;;20.24;44.26;101088.19;4928020;29;20035;-73
2023/09/16 10:49:58;;;;;;;3.72;2.20;;;;;;;20.60;43.94;101125.03;4928107;29;20047;-72
2023/09/16 10:52:40;;;;;;;2.35;1.50;;;;;;;20.45;43.51;101121.91;4916767;29;20825;-72
2023/09/16 10:55:15;;;;;;;2.88;2.35;;;;;;;20.07;43.95;101092.16;4940361;28;20130;-73
2023/09/16 10:57:51;;;;;;;5.63;2.50;;;;;;;19.90;43.71;101097.06;4926358;29;20114;-72
2023/09/16 11:00:21;;;;;;;4.43;1.88;;;;;;;19.61;43.90;101074.91;4909746;29;20075;-71
2023/09/16 11:02:57;;;;;;;5.20;2.20;;;;;;;19.85;44.30;101121.78;4942086;28;20035;-72
2023/09/16 11:05:23;;;;;;;4.43;3.47;;;;;;;19.88;44.36;101104.16;4927682;29;20043;-73
2023/09/16 11:07:49;;;;;;;3.08;1.83;;;;;;;20.26;43.73;101118.06;4940190;28;20048;-73
2023/09/16 11:10:16;;;;;;;2.90;1.60;;;;;;;19.80;43.48;101018.03;4933953;29;20486;-72
2023/09/16 11:12:43;;;;;;;1.55;1.40;;;;;;;20.10;42.57;101105.28;4925987;29;20147;-72
2023/09/16 11:15:09;;;;;;;2.42;1.88;;;;;;;19.79;43.46;101074.41;4939968;28;20063;-72
2023/09/16 11:17:39;;;;;;;3.22;1.48;;;;;;;20.25;42.68;101129.53;4908528;29;20047;-73
2023/09/16 11:20:21;;;;;;;5.07;2.33;;;;;;;20.36;43.29;101130.13;4926230;29;20122;-72
2023/09/16 11:22:51;;;;;;;4.65;1.80;;;;;;;20.40;43.03;101102.69;4928529;29;20075;-72